Nearby METAR Reports

 

GCLP - Las Palmas/Gando, Spain
Distance from station: NE 26km
Updated: 11/12/2017 10:30
Few Clouds
Few Clouds
 Wind from SW
Wind: SW 13 km/h
Temperature: 21°C
Dew Point: 14°C
Humidity: 64%
Barometer: 1020 hPa
Clouds: Few Clouds
Visibility: 10 km
Cloud details: Few Clouds 762 m
2017/12/11 10:30 GCLP 111030Z 22007KT 190V260 9999 FEW025 21/14 Q1020 NOSIG
GCTS - Tenerife Sur/Rei, Spain
Distance from station: WNW 102km
Updated: 11/12/2017 10:30
Few Clouds
Few Clouds
 Wind from varies
Wind: varies 2 km/h
Temperature: 21°C
Dew Point: 14°C
Humidity: 64%
Barometer: 1020 hPa
Clouds: Few Clouds
Visibility: 10 km
Cloud details: Few Clouds 762 m
2017/12/11 10:30 GCTS 111030Z VRB01KT 9999 FEW025 21/14 Q1020 NOSIG
 
GCXO - Tenerife/Los Rod, Spain
Distance from station: NW 110km
Updated: 11/12/2017 10:30
Mostly cloudy
Mostly cloudy
 Wind from WNW
Wind: WNW 37 km/h
Temperature: 15°C
Dew Point: 13°C
Humidity: 88%
Barometer: 1022 hPa
Clouds: Mostly cloudy
Visibility: 10 km
Cloud details: Mostly cloudy 457 m
2017/12/11 10:30 GCXO 111030Z 29020KT 9999 BKN015 15/13 Q1022 NOSIG
GCGM - La Gomera Arpt, Spain
Distance from station: W 164km
Updated: 11/12/2017 10:30
Few Clouds
Few Clouds
 Wind from calm
Wind: Calm
Temperature: 20°C
Dew Point: 13°C
Humidity: 64%
Barometer: 1021 hPa
Clouds: Few Clouds
Visibility: 10 km
Cloud details: Few Clouds 762 m
2017/12/11 10:30 GCGM 111030Z 00000KT 9999 FEW025 20/13 Q1021 RMK R09/VRB02KT ARP/VRB02KT
 
GCFV - Fuerteventura Ar, Spain
Distance from station: ENE 183km
Updated: 11/12/2017 10:30
Mostly cloudy
Mostly cloudy
 Wind from W
Wind: W 20 km/h
Temperature: 21°C
Dew Point: 15°C
Humidity: 69%
Barometer: 1019 hPa
Clouds: Mostly cloudy
Visibility: 10 km
Cloud details: Few Clouds 914 m
Mostly cloudy 1372 m
2017/12/11 10:30 GCFV 111030Z 28011KT 250V310 9999 FEW030 BKN045 21/15 Q1019
GCHI - Hierro Airport, Spain
Distance from station: W 226km
Updated: 11/12/2017 10:30
Partly cloudy
Partly cloudy
 Wind from NNW
Wind: NNW 35 km/h
Temperature: 21°C
Dew Point: 14°C
Humidity: 64%
Barometer: 1022 hPa
Clouds: Partly cloudy
Visibility: 10 km
Cloud details: Partly cloudy 762 m
Partly cloudy 1219 m
2017/12/11 10:30 GCHI 111030Z 34019KT 9999 SCT025 SCT040 21/14 Q1022
 
GCLA - La Palma Airport, Spain
Distance from station: WNW 233km
Updated: 11/12/2017 10:30
Few Clouds
Few Clouds
 Wind from varies
Wind: varies 2 km/h
Temperature: 21°C
Dew Point: 14°C
Humidity: 64%
Barometer: 1022 hPa
Clouds: Few Clouds
Visibility: 10 km
Cloud details: Few Clouds 1067 m
2017/12/11 10:30 GCLA 111030Z VRB01KT 9999 FEW035 21/14 Q1022
GCRR - Arrecife/Lanzaro, Spain
Distance from station: NE 234km
Updated: 11/12/2017 10:30
Mostly cloudy
Mostly cloudy
 Wind from W
Wind: W 24 km/h
Temperature: 21°C
Dew Point: 15°C
Humidity: 69%
Barometer: 1019 hPa
Clouds: Mostly cloudy
Visibility: 10 km
Cloud details: Few Clouds 823 m
Mostly cloudy 1311 m
2017/12/11 10:30 GCRR 111030Z 26013KT 9999 FEW027 BKN043 21/15 Q1019
 
LPMA - Funchal/Madeira, Portugal
Distance from station: NNW 556km
Updated: 11/12/2017 10:30
Light rain, Showers, Partly cloudy
Light rain, Showers, Partly cloudy
 Wind from N
Wind: N 48 km/h, Gust: 69 km/h
Temperature: 17°C
Dew Point: 13°C
Humidity: 77%
Barometer: 1015 hPa
Summary: Light rain, Showers
Clouds: Partly cloudy
Visibility: 7 km
Cloud details: Partly cloudy 396 m
2017/12/11 10:30 LPMA 111030Z 35026G37KT 7000 -SHRA SCT013 17/13 Q1015
LPPS - Porto Santo Isla, Portugal
Distance from station: N 594km
Updated: 11/12/2017 10:30
Partly cloudy
Partly cloudy
 Wind from NNW
Wind: NNW 39 km/h
Temperature: 19°C
Dew Point: 12°C
Humidity: 64%
Barometer: 1016 hPa
Clouds: Partly cloudy
Visibility: 10 km
Cloud details: Few Clouds 366 m
Partly cloudy 914 m
2017/12/11 10:30 LPPS 111030Z 34021KT 9999 FEW012 SCT030 19/12 Q1016